createdAt,value
2022-12-27T00:01:21.235Z,100521.34
2022-12-27T00:03:49.392Z,100513.06
2022-12-27T00:06:22.495Z,100523.41
2022-12-27T00:08:50.456Z,100524.87
2022-12-27T00:11:23.919Z,100518.87
2022-12-27T00:13:52.141Z,100522.81
2022-12-27T00:16:21.692Z,100522.59
2022-12-27T00:18:52.418Z,100513.09
2022-12-27T00:21:24.070Z,100504.19
2022-12-27T00:23:57.632Z,100493.84
2022-12-27T00:26:30.879Z,100487.41
2022-12-27T00:28:59.411Z,100492.38
2022-12-27T00:31:29.825Z,100499.81
2022-12-27T00:33:59.432Z,100498.78
2022-12-27T00:36:30.397Z,100507.28
2022-12-27T00:39:01.144Z,100504.38
2022-12-27T00:41:29.338Z,100506.62
2022-12-27T00:43:56.974Z,100510.12
2022-12-27T00:46:24.674Z,100490.59
2022-12-27T00:48:52.394Z,100488.34
2022-12-27T00:51:26.518Z,100477.34
2022-12-27T00:53:55.823Z,100464.56
2022-12-27T00:56:27.511Z,100473.47
2022-12-27T00:59:01.791Z,100479.22
2022-12-27T01:01:31.723Z,100486.59
2022-12-27T01:04:00.003Z,100485.09
2022-12-27T01:06:30.095Z,100482.91
2022-12-27T01:08:58.224Z,100480.97
2022-12-27T01:11:28.391Z,100477.16
2022-12-27T01:13:58.267Z,100478.09
2022-12-27T01:16:27.247Z,100471.72
2022-12-27T01:18:55.531Z,100467.34
2022-12-27T01:21:27.286Z,100467.78
2022-12-27T01:23:55.353Z,100458.69
2022-12-27T01:26:24.153Z,100466.38
2022-12-27T01:28:52.827Z,100463.69
2022-12-27T01:31:27.713Z,100468.25
2022-12-27T01:33:57.734Z,100464.94
2022-12-27T01:36:26.898Z,100478.00
2022-12-27T01:38:54.881Z,100480.06
2022-12-27T01:41:41.708Z,100470.28
2022-12-27T01:44:37.153Z,100479.56
2022-12-27T01:47:07.177Z,100469.47
2022-12-27T01:49:34.796Z,100464.53
2022-12-27T01:52:05.073Z,100475.19
2022-12-27T01:54:32.858Z,100476.38
2022-12-27T01:57:00.920Z,100466.22
2022-12-27T01:59:29.008Z,100462.12
2022-12-27T02:01:56.784Z,100470.63
2022-12-27T02:04:29.583Z,100479.44
2022-12-27T02:06:57.575Z,100481.37
2022-12-27T02:09:53.656Z,100476.28
2022-12-27T02:12:25.674Z,100489.28
2022-12-27T02:14:53.356Z,100490.53
2022-12-27T02:17:25.327Z,100496.44
2022-12-27T02:20:00.715Z,100493.16
2022-12-27T02:22:57.317Z,100506.81
2022-12-27T02:25:37.188Z,100510.03
2022-12-27T02:28:42.562Z,100512.13
2022-12-27T02:31:17.666Z,100515.31
2022-12-27T02:33:48.763Z,100510.97
2022-12-27T02:36:25.019Z,100493.97
2022-12-27T02:38:56.815Z,100492.28
2022-12-27T02:41:49.711Z,100489.13
2022-12-27T02:44:37.061Z,100484.78
2022-12-27T02:47:23.855Z,100482.03
2022-12-27T02:50:09.057Z,100482.06
2022-12-27T02:52:57.313Z,100474.87
2022-12-27T02:55:27.604Z,100480.38
2022-12-27T02:58:05.704Z,100486.16
2022-12-27T03:01:13.201Z,100491.22
2022-12-27T03:04:19.662Z,100494.69
2022-12-27T03:06:46.212Z,100499.28
2022-12-27T03:09:50.445Z,100512.34
2022-12-27T03:12:51.153Z,100507.00
2022-12-27T03:15:56.931Z,100505.66
2022-12-27T03:18:57.842Z,100507.41
2022-12-27T03:21:51.537Z,100508.47
2022-12-27T03:24:40.940Z,100513.94
2022-12-27T03:27:33.095Z,100520.75
2022-12-27T03:30:21.207Z,100520.47
2022-12-27T03:33:16.811Z,100519.31
2022-12-27T03:36:10.649Z,100521.28
2022-12-27T03:38:55.317Z,100520.41
2022-12-27T03:41:47.117Z,100520.94
2022-12-27T03:44:25.214Z,100519.63
2022-12-27T03:46:58.367Z,100531.69
2022-12-27T03:49:35.461Z,100527.88
2022-12-27T03:52:29.018Z,100540.19
2022-12-27T03:54:57.201Z,100545.09
2022-12-27T03:57:27.509Z,100544.34
2022-12-27T03:59:55.159Z,100549.97
2022-12-27T04:02:24.315Z,100552.66
2022-12-27T04:04:54.430Z,100548.28
2022-12-27T04:07:22.059Z,100551.63
2022-12-27T04:10:07.264Z,100550.34
2022-12-27T04:12:54.759Z,100560.38
2022-12-27T04:15:39.680Z,100567.47
2022-12-27T04:18:25.183Z,100576.19
2022-12-27T04:21:10.255Z,100569.34
2022-12-27T04:23:55.399Z,100578.22
2022-12-27T04:26:42.406Z,100578.88
2022-12-27T04:29:27.669Z,100585.69
2022-12-27T04:32:12.607Z,100585.28
2022-12-27T04:34:43.649Z,100584.03
2022-12-27T04:37:17.494Z,100592.31
2022-12-27T04:40:08.928Z,100602.31
2022-12-27T04:42:54.463Z,100605.63
2022-12-27T04:45:40.112Z,100596.69
2022-12-27T04:48:31.562Z,100614.16
2022-12-27T04:51:17.274Z,100612.31
2022-12-27T04:54:02.205Z,100622.09
2022-12-27T04:56:29.830Z,100617.28
2022-12-27T04:59:14.862Z,100629.75
2022-12-27T05:02:00.387Z,100626.22
2022-12-27T05:04:28.229Z,100649.44
2022-12-27T05:06:58.745Z,100648.00
2022-12-27T05:09:43.765Z,100657.97
2022-12-27T05:12:29.629Z,100666.09
2022-12-27T05:14:59.695Z,100663.22
2022-12-27T05:17:27.279Z,100657.84
2022-12-27T05:19:54.897Z,100666.16
2022-12-27T05:22:42.683Z,100656.84
2022-12-27T05:25:29.553Z,100660.97
2022-12-27T05:27:59.782Z,100667.41
2022-12-27T05:30:29.980Z,100661.63
2022-12-27T05:32:58.012Z,100662.50
2022-12-27T05:35:25.675Z,100673.50
2022-12-27T05:37:55.359Z,100671.03
2022-12-27T05:40:25.020Z,100677.47
2022-12-27T05:42:53.090Z,100686.81
2022-12-27T05:45:21.066Z,100686.19
2022-12-27T05:47:48.626Z,100690.97
2022-12-27T05:50:16.290Z,100695.94
2022-12-27T05:52:43.848Z,100699.69
2022-12-27T05:55:12.972Z,100703.19
2022-12-27T05:57:40.761Z,100707.13
2022-12-27T06:00:09.606Z,100711.69
2022-12-27T06:02:39.472Z,100721.22
2022-12-27T06:05:07.913Z,100726.62
2022-12-27T06:07:36.832Z,100732.22
2022-12-27T06:10:08.577Z,100728.69
2022-12-27T06:12:36.693Z,100742.75
2022-12-27T06:15:05.978Z,100748.34
2022-12-27T06:17:33.704Z,100742.37
2022-12-27T06:20:03.440Z,100746.72
2022-12-27T06:22:31.075Z,100752.31
2022-12-27T06:24:58.661Z,100749.37
2022-12-27T06:27:26.303Z,100748.13
2022-12-27T06:29:53.906Z,100752.69
2022-12-27T06:32:21.550Z,100752.31
2022-12-27T06:34:49.274Z,100758.50
2022-12-27T06:37:18.166Z,100760.13
2022-12-27T06:39:46.345Z,100763.63
2022-12-27T06:42:13.974Z,100762.59
2022-12-27T06:44:41.607Z,100784.56
2022-12-27T06:47:11.461Z,100786.22
2022-12-27T06:49:39.068Z,100797.19
2022-12-27T06:52:07.072Z,100797.81
2022-12-27T06:54:34.641Z,100803.69
2022-12-27T06:57:02.260Z,100809.84
2022-12-27T06:59:30.225Z,100805.91
2022-12-27T07:02:00.101Z,100810.66
2022-12-27T07:04:27.804Z,100813.00
2022-12-27T07:06:57.731Z,100807.91
2022-12-27T07:09:27.864Z,100807.75
2022-12-27T07:11:56.862Z,100814.62
2022-12-27T07:14:24.524Z,100818.16
2022-12-27T07:16:52.130Z,100810.47
2022-12-27T07:19:19.746Z,100803.03
2022-12-27T07:21:47.318Z,100812.12
2022-12-27T07:24:14.885Z,100816.87
2022-12-27T07:26:42.475Z,100814.97
2022-12-27T07:29:10.944Z,100810.91
2022-12-27T07:31:38.594Z,100823.09
2022-12-27T07:34:06.192Z,100820.88
2022-12-27T07:36:39.071Z,100826.22
2022-12-27T07:39:07.849Z,100819.44
2022-12-27T07:41:35.845Z,100823.91
2022-12-27T07:44:04.379Z,100821.19
2022-12-27T07:46:32.899Z,100813.06
2022-12-27T07:49:00.870Z,100818.59
2022-12-27T07:51:29.043Z,100826.16
2022-12-27T07:53:56.695Z,100840.22
2022-12-27T07:56:27.237Z,100846.25
2022-12-27T07:58:56.790Z,100869.66
2022-12-27T08:01:26.764Z,100867.41
2022-12-27T08:03:54.412Z,100883.84
2022-12-27T08:06:28.213Z,100885.28
2022-12-27T08:08:58.769Z,100904.44
2022-12-27T08:11:26.686Z,100896.12
2022-12-27T08:13:54.624Z,100914.13
2022-12-27T08:16:25.396Z,100921.94
2022-12-27T08:18:54.024Z,100921.13
2022-12-27T08:21:21.816Z,100916.31
2022-12-27T08:23:49.429Z,100917.19
2022-12-27T08:26:24.339Z,100924.28
2022-12-27T08:28:52.411Z,100934.94
2022-12-27T08:31:22.395Z,100932.91
2022-12-27T08:33:56.571Z,100932.47
2022-12-27T08:36:54.128Z,100948.97
2022-12-27T08:39:13.555Z,100941.69
2022-12-27T08:41:41.133Z,100938.19
2022-12-27T08:44:11.435Z,100939.84
2022-12-27T08:46:39.473Z,100929.50
2022-12-27T08:49:14.463Z,100931.75
2022-12-27T08:51:44.438Z,100939.69
2022-12-27T08:54:12.057Z,100938.63
2022-12-27T08:56:39.670Z,100936.59
2022-12-27T08:59:12.026Z,100944.47
2022-12-27T09:01:39.804Z,100952.53
2022-12-27T09:04:07.450Z,100969.78
2022-12-27T09:06:35.309Z,100954.25
2022-12-27T09:09:03.047Z,100957.22
2022-12-27T09:11:33.257Z,100933.13
2022-12-27T09:14:06.551Z,100957.47
2022-12-27T09:16:35.766Z,100952.94
2022-12-27T09:19:04.238Z,100951.94
2022-12-27T09:21:34.008Z,100956.13
2022-12-27T09:24:02.150Z,100960.91
2022-12-27T09:26:31.406Z,100974.22
2022-12-27T09:29:00.148Z,100968.44
2022-12-27T09:31:28.449Z,100962.75
2022-12-27T09:33:56.795Z,100957.25
2022-12-27T09:36:27.448Z,100981.78
2022-12-27T09:38:57.028Z,100982.19
2022-12-27T09:45:46.486Z,100965.16
2022-12-27T09:48:33.450Z,100969.88
2022-12-27T09:51:25.086Z,100951.06
2022-12-27T09:54:07.564Z,100972.44
2022-12-27T09:57:09.632Z,100975.56
2022-12-27T09:59:25.928Z,100973.78
2022-12-27T10:01:53.924Z,100992.56
2022-12-27T10:04:22.173Z,100992.53
2022-12-27T10:06:49.792Z,100995.03
2022-12-27T10:09:50.988Z,101006.87
2022-12-27T10:12:32.085Z,100991.09
2022-12-27T10:15:24.828Z,101011.69
2022-12-27T10:18:13.391Z,101004.53
2022-12-27T10:20:56.136Z,101015.41
2022-12-27T10:23:29.988Z,101014.91
2022-12-27T10:26:01.267Z,101017.44
2022-12-27T10:28:38.561Z,101018.00
2022-12-27T10:31:06.699Z,101024.81
2022-12-27T10:33:36.304Z,101011.13
2022-12-27T10:36:10.763Z,101014.53
2022-12-27T10:38:38.418Z,101012.53
2022-12-27T10:41:17.695Z,101048.78
2022-12-27T10:43:50.922Z,101038.44
2022-12-27T10:46:30.679Z,101028.88
2022-12-27T10:49:25.002Z,101053.47
2022-12-27T10:51:58.651Z,101041.66
2022-12-27T10:54:29.280Z,101039.97
2022-12-27T10:56:58.272Z,101039.12
2022-12-27T10:59:30.254Z,101051.88
2022-12-27T11:02:01.725Z,101066.41
2022-12-27T11:04:32.102Z,101042.50
2022-12-27T11:07:02.892Z,101043.13
2022-12-27T11:09:40.141Z,101054.16
2022-12-27T11:12:28.838Z,101072.44
2022-12-27T11:14:59.496Z,101066.66
2022-12-27T11:17:38.515Z,101070.38
2022-12-27T11:20:34.687Z,101082.44
2022-12-27T11:23:12.896Z,101085.97
2022-12-27T11:25:55.710Z,101078.06
2022-12-27T11:28:39.572Z,101051.25
2022-12-27T11:31:19.273Z,101059.34
2022-12-27T11:33:49.767Z,101077.44
2022-12-27T11:36:30.174Z,101071.81
2022-12-27T11:38:58.574Z,101081.22
2022-12-27T11:41:34.903Z,101078.91
2022-12-27T11:44:17.715Z,101083.25
2022-12-27T11:46:58.548Z,101071.03
2022-12-27T11:49:37.740Z,101061.66
2022-12-27T11:52:42.285Z,101069.34
2022-12-27T11:55:15.904Z,101064.97
2022-12-27T11:58:10.353Z,101066.63
2022-12-27T12:01:05.322Z,101066.03
2022-12-27T12:04:04.803Z,101065.59
2022-12-27T12:06:34.587Z,101066.66
2022-12-27T12:09:23.427Z,101065.38
2022-12-27T12:12:28.418Z,101071.81
2022-12-27T12:15:02.265Z,101064.31
2022-12-27T12:17:51.307Z,101065.97
2022-12-27T12:20:30.884Z,101070.13
2022-12-27T12:23:13.489Z,101077.34
2022-12-27T12:25:53.001Z,101080.78
2022-12-27T12:28:59.609Z,101074.03
2022-12-27T12:31:43.242Z,101074.16
2022-12-27T12:34:48.662Z,101071.50
2022-12-27T12:37:25.548Z,101081.91
2022-12-27T12:39:56.066Z,101076.38
2022-12-27T12:42:52.668Z,101072.25
2022-12-27T12:45:44.247Z,101081.41
2022-12-27T12:48:41.709Z,101078.78
2022-12-27T12:51:31.216Z,101079.72
2022-12-27T12:54:30.764Z,101081.22
2022-12-27T12:57:22.578Z,101090.97
2022-12-27T13:00:44.275Z,101098.44
2022-12-27T13:03:30.859Z,101090.53
2022-12-27T13:06:11.720Z,101104.28
2022-12-27T13:09:19.200Z,101098.44
2022-12-27T13:12:12.950Z,101093.44
2022-12-27T13:14:40.551Z,101090.69
2022-12-27T13:17:15.343Z,101100.44
2022-12-27T13:20:06.632Z,101103.56
2022-12-27T13:22:49.309Z,101102.47
2022-12-27T13:25:38.054Z,101111.03
2022-12-27T13:28:43.608Z,101108.13
2022-12-27T13:31:34.637Z,101120.66
2022-12-27T13:34:26.945Z,101121.94
2022-12-27T13:37:23.228Z,101131.13
2022-12-27T13:40:06.309Z,101134.22
2022-12-27T13:42:39.908Z,101147.97
2022-12-27T13:45:19.367Z,101152.28
2022-12-27T13:47:52.758Z,101149.84
2022-12-27T13:50:51.035Z,101149.06
2022-12-27T13:53:34.939Z,101159.50
2022-12-27T13:56:43.500Z,101158.69
2022-12-27T13:59:07.748Z,101159.56
2022-12-27T14:02:01.414Z,101136.00
2022-12-27T14:04:41.077Z,101136.16
2022-12-27T14:07:33.406Z,101140.81
2022-12-27T14:10:04.068Z,101145.87
2022-12-27T14:12:43.675Z,101146.19
2022-12-27T14:15:18.400Z,101162.50
2022-12-27T14:18:15.045Z,101165.47
2022-12-27T14:21:16.529Z,101170.34
2022-12-27T14:23:54.465Z,101186.78
2022-12-27T14:26:49.579Z,101206.56
2022-12-27T14:29:41.532Z,101225.50
2022-12-27T14:32:25.957Z,101214.28
2022-12-27T14:35:22.950Z,101228.56
2022-12-27T14:38:21.537Z,101242.28
2022-12-27T14:41:02.212Z,101253.69
2022-12-27T14:44:10.423Z,101258.50
2022-12-27T14:46:53.960Z,101258.38
2022-12-27T14:49:43.088Z,101257.34
2022-12-27T14:52:38.201Z,101261.09
2022-12-27T14:55:24.987Z,101263.22
2022-12-27T14:58:27.444Z,101261.97
2022-12-27T15:01:07.088Z,101265.44
2022-12-27T15:03:46.719Z,101258.94
2022-12-27T15:06:17.473Z,101257.06
2022-12-27T15:09:06.974Z,101268.34
2022-12-27T15:11:52.987Z,101261.69
2022-12-27T15:14:37.004Z,101261.81
2022-12-27T15:17:19.942Z,101267.37
2022-12-27T15:20:18.879Z,101266.88
2022-12-27T15:23:20.326Z,101277.94
2022-12-27T15:26:20.205Z,101277.63
2022-12-27T15:29:13.541Z,101285.75
2022-12-27T15:31:47.465Z,101296.19
2022-12-27T15:34:32.275Z,101298.41
2022-12-27T15:37:02.515Z,101297.28
2022-12-27T15:39:36.165Z,101300.00
2022-12-27T15:42:15.667Z,101302.69
2022-12-27T15:45:04.837Z,101298.34
2022-12-27T15:48:05.579Z,101302.38
2022-12-27T15:50:44.192Z,101302.41
2022-12-27T15:53:11.858Z,101300.12
2022-12-27T15:55:53.036Z,101310.16
2022-12-27T15:58:22.702Z,101315.16
2022-12-27T16:01:25.659Z,101314.13
2022-12-27T16:03:54.953Z,101320.16
2022-12-27T16:06:34.793Z,101324.50
2022-12-27T16:09:27.617Z,101326.03
2022-12-27T16:12:13.176Z,101316.50
2022-12-27T16:14:43.112Z,101321.66
2022-12-27T16:17:35.810Z,101311.44
2022-12-27T16:20:11.943Z,101323.19
2022-12-27T16:22:43.755Z,101322.00
2022-12-27T16:25:57.832Z,101322.50
2022-12-27T16:28:31.596Z,101326.72
2022-12-27T16:31:01.130Z,101320.34
2022-12-27T16:33:28.735Z,101317.47
2022-12-27T16:36:17.453Z,101319.81
2022-12-27T16:39:12.453Z,101317.12
2022-12-27T16:41:55.050Z,101325.53
2022-12-27T16:44:25.434Z,101311.19
2022-12-27T16:47:08.010Z,101312.00
2022-12-27T16:49:38.692Z,101300.91
2022-12-27T16:52:15.886Z,101296.97
2022-12-27T16:54:58.767Z,101277.28
2022-12-27T16:57:26.357Z,101293.19
2022-12-27T17:00:24.383Z,101300.72
2022-12-27T17:02:52.117Z,101296.28
2022-12-27T17:05:25.217Z,101300.66
2022-12-27T17:07:56.780Z,101308.72
2022-12-27T17:10:30.513Z,101306.69
2022-12-27T17:13:39.413Z,101325.50
2022-12-27T17:16:16.190Z,101343.00
2022-12-27T17:18:57.964Z,101337.50
2022-12-27T17:21:35.668Z,101346.91
2022-12-27T17:24:10.960Z,101354.69
2022-12-27T17:27:10.168Z,101349.31
2022-12-27T17:29:46.902Z,101346.19
2022-12-27T17:32:24.098Z,101362.34
2022-12-27T17:35:05.999Z,101370.91
2022-12-27T17:38:13.471Z,101367.38
2022-12-27T17:40:47.507Z,101368.91
2022-12-27T17:44:11.300Z,101372.78
2022-12-27T17:47:21.656Z,101375.81
2022-12-27T17:49:49.635Z,101379.37
2022-12-27T17:52:43.463Z,101381.53
2022-12-27T17:55:42.705Z,101379.84
2022-12-27T17:58:12.869Z,101384.75
2022-12-27T18:01:12.739Z,101384.25
2022-12-27T18:03:46.572Z,101394.13
2022-12-27T18:06:22.011Z,101396.69
2022-12-27T18:08:50.843Z,101387.09
2022-12-27T18:11:23.452Z,101397.00
2022-12-27T18:13:58.970Z,101399.34
2022-12-27T18:16:36.804Z,101413.09
2022-12-27T18:19:04.837Z,101417.31
2022-12-27T18:21:32.914Z,101416.81
2022-12-27T18:24:00.910Z,101423.84
2022-12-27T18:26:39.789Z,101423.34
2022-12-27T18:29:12.071Z,101425.53
2022-12-27T18:31:50.019Z,101432.22
2022-12-27T18:35:00.115Z,101432.38
2022-12-27T18:37:28.529Z,101435.19
2022-12-27T18:40:02.459Z,101444.41
2022-12-27T18:42:41.096Z,101430.09
2022-12-27T18:45:27.326Z,101436.44
2022-12-27T18:48:01.791Z,101428.28
2022-12-27T18:50:35.566Z,101421.00
2022-12-27T18:53:08.184Z,101427.81
2022-12-27T18:55:37.276Z,101432.25
2022-12-27T18:58:15.016Z,101427.69
2022-12-27T19:00:57.724Z,101434.53
2022-12-27T19:03:25.496Z,101429.56
2022-12-27T19:06:06.634Z,101430.19
2022-12-27T19:08:40.828Z,101435.19
2022-12-27T19:11:08.823Z,101428.62
2022-12-27T19:13:48.199Z,101435.41
2022-12-27T19:16:36.712Z,101427.13
2022-12-27T19:19:23.666Z,101446.50
2022-12-27T19:21:51.360Z,101458.66
2022-12-27T19:24:27.295Z,101455.47
2022-12-27T19:26:57.168Z,101447.19
2022-12-27T19:29:28.240Z,101451.47
2022-12-27T19:32:03.715Z,101446.91
2022-12-27T19:34:43.775Z,101448.72
2022-12-27T19:37:11.470Z,101446.38
2022-12-27T19:39:40.705Z,101446.94
2022-12-27T19:42:15.988Z,101446.87
2022-12-27T19:44:43.615Z,101449.31
2022-12-27T19:47:14.400Z,101450.75
2022-12-27T19:49:44.057Z,101459.34
2022-12-27T19:52:32.783Z,101455.97
2022-12-27T19:55:11.128Z,101466.97
2022-12-27T19:57:40.520Z,101460.78
2022-12-27T20:00:18.969Z,101465.53
2022-12-27T20:02:47.207Z,101468.34
2022-12-27T20:05:14.972Z,101463.38
2022-12-27T20:07:42.901Z,101463.38
2022-12-27T20:10:14.713Z,101446.97
2022-12-27T20:12:44.560Z,101438.97
2022-12-27T20:15:14.432Z,101435.47
2022-12-27T20:17:45.156Z,101431.94
2022-12-27T20:20:13.369Z,101434.63
2022-12-27T20:22:41.032Z,101436.59
2022-12-27T20:25:09.725Z,101442.41
2022-12-27T20:27:37.340Z,101443.84
2022-12-27T20:30:05.297Z,101451.16
2022-12-27T20:32:32.862Z,101459.47
2022-12-27T20:35:00.493Z,101442.19
2022-12-27T20:37:28.147Z,101449.06
2022-12-27T20:39:57.854Z,101451.03
2022-12-27T20:42:25.509Z,101460.56
2022-12-27T20:44:53.394Z,101469.72
2022-12-27T20:47:21.096Z,101479.38
2022-12-27T20:49:48.715Z,101485.06
2022-12-27T20:52:18.484Z,101477.94
2022-12-27T20:54:49.194Z,101472.66
2022-12-27T20:57:16.824Z,101469.75
2022-12-27T20:59:44.612Z,101470.53
2022-12-27T21:02:15.792Z,101459.72
2022-12-27T21:04:43.507Z,101470.84
2022-12-27T21:07:11.149Z,101473.97
2022-12-27T21:09:38.815Z,101471.69
2022-12-27T21:12:08.829Z,101470.22
2022-12-27T21:14:37.368Z,101470.16
2022-12-27T21:17:05.248Z,101476.22
2022-12-27T21:19:33.035Z,101477.13
2022-12-27T21:22:02.662Z,101480.34
2022-12-27T21:24:34.884Z,101481.56
2022-12-27T21:27:02.512Z,101485.63
2022-12-27T21:29:32.572Z,101481.78
2022-12-27T21:32:01.528Z,101485.53
2022-12-27T21:34:29.149Z,101479.50
2022-12-27T21:36:59.068Z,101487.22
2022-12-27T21:39:26.628Z,101483.53
2022-12-27T21:41:54.211Z,101486.38
2022-12-27T21:44:25.360Z,101476.50
2022-12-27T21:46:52.978Z,101472.53
2022-12-27T21:49:20.806Z,101481.47
2022-12-27T21:51:50.865Z,101487.72
2022-12-27T21:54:18.637Z,101478.09
2022-12-27T21:56:48.570Z,101479.62
2022-12-27T21:59:18.443Z,101479.62
2022-12-27T22:01:51.572Z,101475.81
2022-12-27T22:04:23.015Z,101477.50
2022-12-27T22:06:50.689Z,101478.16
2022-12-27T22:09:20.730Z,101476.69
2022-12-27T22:11:51.192Z,101488.91
2022-12-27T22:14:24.949Z,101480.91
2022-12-27T22:16:52.996Z,101479.91
2022-12-27T22:19:20.627Z,101487.75
2022-12-27T22:21:52.880Z,101484.56
2022-12-27T22:24:20.498Z,101481.22
2022-12-27T22:26:50.681Z,101483.88
2022-12-27T22:29:21.732Z,101484.87
2022-12-27T22:31:51.676Z,101486.41
2022-12-27T22:34:19.235Z,101482.56
2022-12-27T22:36:46.901Z,101492.28
2022-12-27T22:39:14.499Z,101493.78
2022-12-27T22:41:44.424Z,101487.13
2022-12-27T22:44:18.652Z,101489.28
2022-12-27T22:49:34.862Z,101475.53
2022-12-27T22:52:02.494Z,101470.56
2022-12-27T22:55:04.795Z,101472.38
2022-12-27T22:57:17.724Z,101464.53
2022-12-27T22:59:45.371Z,101462.00
2022-12-27T23:02:13.111Z,101463.16
2022-12-27T23:04:43.300Z,101464.00
2022-12-27T23:07:16.228Z,101462.47
2022-12-27T23:09:43.924Z,101456.59
2022-12-27T23:12:11.603Z,101457.09
2022-12-27T23:14:39.700Z,101447.66
2022-12-27T23:17:07.307Z,101445.31
2022-12-27T23:19:34.896Z,101453.97
2022-12-27T23:22:02.498Z,101447.28
2022-12-27T23:24:30.058Z,101451.66
2022-12-27T23:26:57.708Z,101445.47
2022-12-27T23:29:27.708Z,101443.63
2022-12-27T23:31:56.115Z,101444.31
2022-12-27T23:34:28.770Z,101448.06
2022-12-27T23:37:01.034Z,101440.59
2022-12-27T23:39:31.410Z,101440.75
2022-12-27T23:41:59.187Z,101435.44
2022-12-27T23:44:32.997Z,101434.97
2022-12-27T23:47:05.389Z,101438.03
2022-12-27T23:49:35.676Z,101426.34
2022-12-27T23:52:03.560Z,101422.50
2022-12-27T23:54:31.192Z,101420.88
2022-12-27T23:56:58.813Z,101410.44
2022-12-27T23:59:46.379Z,101408.38
